sensor_id;sensor_type;location;lat;lon;timestamp;P1;durP1;ratioP1;P2;durP2;ratioP2
32611;SDS011;19030;49.478;8.986;2022-07-03T00:01:32;4.22;;;2.20;;
32611;SDS011;19030;49.478;8.986;2022-07-03T00:03:33;14.23;;;2.85;;
32611;SDS011;19030;49.478;8.986;2022-07-03T00:05:34;4.35;;;2.45;;
32611;SDS011;19030;49.478;8.986;2022-07-03T00:07:36;2.60;;;1.90;;
32611;SDS011;19030;49.478;8.986;2022-07-03T00:09:38;3.13;;;2.05;;
32611;SDS011;19030;49.478;8.986;2022-07-03T00:11:39;3.97;;;2.33;;
32611;SDS011;19030;49.478;8.986;2022-07-03T00:13:39;4.13;;;2.20;;
32611;SDS011;19030;49.478;8.986;2022-07-03T00:15:40;2.33;;;1.90;;
32611;SDS011;19030;49.478;8.986;2022-07-03T00:17:41;2.40;;;2.00;;
32611;SDS011;19030;49.478;8.986;2022-07-03T00:19:41;3.17;;;2.00;;
32611;SDS011;19030;49.478;8.986;2022-07-03T00:21:46;3.13;;;1.88;;
32611;SDS011;19030;49.478;8.986;2022-07-03T00:24:03;5.47;;;2.40;;
32611;SDS011;19030;49.478;8.986;2022-07-03T00:28:10;3.88;;;2.15;;
32611;SDS011;19030;49.478;8.986;2022-07-03T00:30:11;6.13;;;2.28;;
32611;SDS011;19030;49.478;8.986;2022-07-03T00:32:13;3.30;;;2.28;;
32611;SDS011;19030;49.478;8.986;2022-07-03T00:34:18;2.97;;;2.10;;
32611;SDS011;19030;49.478;8.986;2022-07-03T00:36:20;3.83;;;1.95;;
32611;SDS011;19030;49.478;8.986;2022-07-03T00:38:21;4.07;;;2.33;;
32611;SDS011;19030;49.478;8.986;2022-07-03T00:40:22;3.85;;;2.10;;
32611;SDS011;19030;49.478;8.986;2022-07-03T00:42:24;3.17;;;2.17;;
32611;SDS011;19030;49.478;8.986;2022-07-03T00:44:30;4.70;;;2.38;;
32611;SDS011;19030;49.478;8.986;2022-07-03T00:48:37;6.10;;;2.72;;
32611;SDS011;19030;49.478;8.986;2022-07-03T00:50:38;3.78;;;2.13;;
32611;SDS011;19030;49.478;8.986;2022-07-03T00:54:54;4.53;;;2.30;;
32611;SDS011;19030;49.478;8.986;2022-07-03T00:56:56;3.30;;;2.10;;
32611;SDS011;19030;49.478;8.986;2022-07-03T00:59:00;2.92;;;2.10;;
32611;SDS011;19030;49.478;8.986;2022-07-03T01:01:01;3.70;;;2.20;;
32611;SDS011;19030;49.478;8.986;2022-07-03T01:03:05;3.50;;;2.30;;
32611;SDS011;19030;49.478;8.986;2022-07-03T01:07:37;4.70;;;2.25;;
32611;SDS011;19030;49.478;8.986;2022-07-03T01:09:45;3.85;;;2.05;;
32611;SDS011;19030;49.478;8.986;2022-07-03T01:12:06;4.03;;;2.30;;
32611;SDS011;19030;49.478;8.986;2022-07-03T01:16:30;3.60;;;2.45;;
32611;SDS011;19030;49.478;8.986;2022-07-03T01:18:59;4.53;;;2.20;;
32611;SDS011;19030;49.478;8.986;2022-07-03T01:25:52;6.38;;;2.20;;
32611;SDS011;19030;49.478;8.986;2022-07-03T01:27:59;7.03;;;3.75;;
32611;SDS011;19030;49.478;8.986;2022-07-03T01:30:10;3.53;;;2.28;;
32611;SDS011;19030;49.478;8.986;2022-07-03T01:32:11;4.15;;;2.40;;
32611;SDS011;19030;49.478;8.986;2022-07-03T01:34:14;3.63;;;2.40;;
32611;SDS011;19030;49.478;8.986;2022-07-03T01:36:18;4.35;;;2.40;;
32611;SDS011;19030;49.478;8.986;2022-07-03T01:38:23;4.47;;;2.50;;
32611;SDS011;19030;49.478;8.986;2022-07-03T01:40:27;3.70;;;2.38;;
32611;SDS011;19030;49.478;8.986;2022-07-03T01:42:29;3.78;;;2.17;;
32611;SDS011;19030;49.478;8.986;2022-07-03T01:44:33;4.32;;;2.30;;
32611;SDS011;19030;49.478;8.986;2022-07-03T01:46:35;6.50;;;2.40;;
32611;SDS011;19030;49.478;8.986;2022-07-03T01:48:35;3.47;;;2.40;;
32611;SDS011;19030;49.478;8.986;2022-07-03T01:50:41;3.45;;;2.33;;
32611;SDS011;19030;49.478;8.986;2022-07-03T01:52:43;4.72;;;2.25;;
32611;SDS011;19030;49.478;8.986;2022-07-03T01:54:45;5.18;;;2.40;;
32611;SDS011;19030;49.478;8.986;2022-07-03T01:56:47;3.88;;;2.28;;
32611;SDS011;19030;49.478;8.986;2022-07-03T01:58:47;4.90;;;2.60;;
32611;SDS011;19030;49.478;8.986;2022-07-03T02:01:00;2.58;;;2.13;;
32611;SDS011;19030;49.478;8.986;2022-07-03T02:03:50;6.10;;;2.42;;
32611;SDS011;19030;49.478;8.986;2022-07-03T02:05:47;3.72;;;2.22;;
32611;SDS011;19030;49.478;8.986;2022-07-03T02:07:50;4.78;;;2.30;;
32611;SDS011;19030;49.478;8.986;2022-07-03T02:12:10;3.03;;;2.20;;
32611;SDS011;19030;49.478;8.986;2022-07-03T02:14:17;5.28;;;2.28;;
32611;SDS011;19030;49.478;8.986;2022-07-03T02:16:43;5.43;;;2.30;;
32611;SDS011;19030;49.478;8.986;2022-07-03T02:18:55;4.88;;;2.38;;
32611;SDS011;19030;49.478;8.986;2022-07-03T02:21:10;4.32;;;2.40;;
32611;SDS011;19030;49.478;8.986;2022-07-03T02:23:17;4.43;;;2.50;;
32611;SDS011;19030;49.478;8.986;2022-07-03T02:25:23;4.28;;;2.38;;
32611;SDS011;19030;49.478;8.986;2022-07-03T02:30:06;3.90;;;2.10;;
32611;SDS011;19030;49.478;8.986;2022-07-03T02:32:10;4.82;;;2.70;;
32611;SDS011;19030;49.478;8.986;2022-07-03T02:34:15;3.83;;;2.50;;
32611;SDS011;19030;49.478;8.986;2022-07-03T02:36:17;4.05;;;2.20;;
32611;SDS011;19030;49.478;8.986;2022-07-03T02:38:21;4.53;;;2.42;;
32611;SDS011;19030;49.478;8.986;2022-07-03T02:42:42;5.10;;;2.17;;
32611;SDS011;19030;49.478;8.986;2022-07-03T02:44:50;3.20;;;2.30;;
32611;SDS011;19030;49.478;8.986;2022-07-03T02:47:14;4.10;;;2.25;;
32611;SDS011;19030;49.478;8.986;2022-07-03T02:54:11;4.07;;;2.70;;
32611;SDS011;19030;49.478;8.986;2022-07-03T02:56:15;3.92;;;2.30;;
32611;SDS011;19030;49.478;8.986;2022-07-03T03:01:36;5.93;;;2.65;;
32611;SDS011;19030;49.478;8.986;2022-07-03T03:03:26;5.38;;;2.30;;
32611;SDS011;19030;49.478;8.986;2022-07-03T03:05:49;4.05;;;2.20;;
32611;SDS011;19030;49.478;8.986;2022-07-03T03:08:01;4.35;;;2.50;;
32611;SDS011;19030;49.478;8.986;2022-07-03T03:10:10;3.47;;;2.38;;
32611;SDS011;19030;49.478;8.986;2022-07-03T03:12:14;4.32;;;2.53;;
32611;SDS011;19030;49.478;8.986;2022-07-03T03:14:22;3.83;;;2.33;;
32611;SDS011;19030;49.478;8.986;2022-07-03T03:16:27;4.80;;;2.78;;
32611;SDS011;19030;49.478;8.986;2022-07-03T03:18:28;4.68;;;2.65;;
32611;SDS011;19030;49.478;8.986;2022-07-03T03:20:30;4.43;;;2.53;;
32611;SDS011;19030;49.478;8.986;2022-07-03T03:24:46;4.95;;;2.63;;
32611;SDS011;19030;49.478;8.986;2022-07-03T03:26:47;4.75;;;2.40;;
32611;SDS011;19030;49.478;8.986;2022-07-03T03:28:48;7.13;;;2.42;;
32611;SDS011;19030;49.478;8.986;2022-07-03T03:30:50;3.35;;;2.30;;
32611;SDS011;19030;49.478;8.986;2022-07-03T03:32:50;5.13;;;3.08;;
32611;SDS011;19030;49.478;8.986;2022-07-03T03:34:52;5.35;;;2.53;;
32611;SDS011;19030;49.478;8.986;2022-07-03T03:36:52;5.18;;;2.67;;
32611;SDS011;19030;49.478;8.986;2022-07-03T03:38:53;3.88;;;2.70;;
32611;SDS011;19030;49.478;8.986;2022-07-03T03:40:54;4.65;;;2.92;;
32611;SDS011;19030;49.478;8.986;2022-07-03T03:42:55;4.82;;;2.60;;
32611;SDS011;19030;49.478;8.986;2022-07-03T03:44:56;4.88;;;2.80;;
32611;SDS011;19030;49.478;8.986;2022-07-03T03:46:56;5.10;;;2.70;;
32611;SDS011;19030;49.478;8.986;2022-07-03T03:48:57;3.55;;;2.50;;
32611;SDS011;19030;49.478;8.986;2022-07-03T03:50:58;4.25;;;2.58;;
32611;SDS011;19030;49.478;8.986;2022-07-03T03:52:59;3.80;;;2.58;;
32611;SDS011;19030;49.478;8.986;2022-07-03T03:55:00;4.65;;;2.80;;
32611;SDS011;19030;49.478;8.986;2022-07-03T03:59:21;4.70;;;2.60;;
32611;SDS011;19030;49.478;8.986;2022-07-03T04:01:22;6.47;;;2.60;;
32611;SDS011;19030;49.478;8.986;2022-07-03T04:03:23;3.58;;;2.50;;
32611;SDS011;19030;49.478;8.986;2022-07-03T04:05:24;5.05;;;2.50;;
32611;SDS011;19030;49.478;8.986;2022-07-03T04:07:25;4.63;;;2.50;;
32611;SDS011;19030;49.478;8.986;2022-07-03T04:09:25;5.25;;;2.47;;
32611;SDS011;19030;49.478;8.986;2022-07-03T04:11:26;2.85;;;2.30;;
32611;SDS011;19030;49.478;8.986;2022-07-03T04:13:27;3.30;;;2.33;;
32611;SDS011;19030;49.478;8.986;2022-07-03T04:15:27;5.60;;;2.80;;
32611;SDS011;19030;49.478;8.986;2022-07-03T04:17:28;4.35;;;2.50;;
32611;SDS011;19030;49.478;8.986;2022-07-03T04:19:29;4.80;;;2.70;;
32611;SDS011;19030;49.478;8.986;2022-07-03T04:21:30;3.45;;;2.30;;
32611;SDS011;19030;49.478;8.986;2022-07-03T04:23:30;3.33;;;2.40;;
32611;SDS011;19030;49.478;8.986;2022-07-03T04:25:31;3.65;;;2.30;;
32611;SDS011;19030;49.478;8.986;2022-07-03T04:27:31;4.80;;;2.60;;
32611;SDS011;19030;49.478;8.986;2022-07-03T04:29:32;4.22;;;2.42;;
32611;SDS011;19030;49.478;8.986;2022-07-03T04:31:33;4.07;;;2.45;;
32611;SDS011;19030;49.478;8.986;2022-07-03T04:33:33;3.55;;;2.33;;
32611;SDS011;19030;49.478;8.986;2022-07-03T04:35:34;5.88;;;2.63;;
32611;SDS011;19030;49.478;8.986;2022-07-03T04:37:34;4.22;;;2.60;;
32611;SDS011;19030;49.478;8.986;2022-07-03T04:39:35;5.68;;;2.60;;
32611;SDS011;19030;49.478;8.986;2022-07-03T04:41:35;3.65;;;2.25;;
32611;SDS011;19030;49.478;8.986;2022-07-03T04:43:36;4.57;;;2.30;;
32611;SDS011;19030;49.478;8.986;2022-07-03T04:45:36;5.22;;;2.70;;
32611;SDS011;19030;49.478;8.986;2022-07-03T04:47:37;3.78;;;2.35;;
32611;SDS011;19030;49.478;8.986;2022-07-03T04:49:38;2.95;;;2.25;;
32611;SDS011;19030;49.478;8.986;2022-07-03T04:51:38;3.63;;;2.42;;
32611;SDS011;19030;49.478;8.986;2022-07-03T04:53:39;3.90;;;2.60;;
32611;SDS011;19030;49.478;8.986;2022-07-03T04:55:39;3.92;;;2.40;;
32611;SDS011;19030;49.478;8.986;2022-07-03T04:57:40;3.67;;;2.30;;
32611;SDS011;19030;49.478;8.986;2022-07-03T04:59:41;3.35;;;2.33;;
32611;SDS011;19030;49.478;8.986;2022-07-03T05:01:41;3.03;;;2.30;;
32611;SDS011;19030;49.478;8.986;2022-07-03T05:03:42;3.90;;;2.50;;
32611;SDS011;19030;49.478;8.986;2022-07-03T05:05:42;3.53;;;2.35;;
32611;SDS011;19030;49.478;8.986;2022-07-03T05:07:43;4.35;;;2.35;;
32611;SDS011;19030;49.478;8.986;2022-07-03T05:09:44;3.95;;;2.33;;
32611;SDS011;19030;49.478;8.986;2022-07-03T05:11:45;3.53;;;2.15;;
32611;SDS011;19030;49.478;8.986;2022-07-03T05:13:45;4.50;;;2.67;;
32611;SDS011;19030;49.478;8.986;2022-07-03T05:15:46;3.20;;;2.30;;
32611;SDS011;19030;49.478;8.986;2022-07-03T05:17:46;4.63;;;2.53;;
32611;SDS011;19030;49.478;8.986;2022-07-03T05:19:47;3.38;;;2.50;;
32611;SDS011;19030;49.478;8.986;2022-07-03T05:22:09;4.13;;;2.50;;
32611;SDS011;19030;49.478;8.986;2022-07-03T05:24:10;5.55;;;2.88;;
32611;SDS011;19030;49.478;8.986;2022-07-03T05:26:10;3.75;;;2.63;;
32611;SDS011;19030;49.478;8.986;2022-07-03T05:28:11;3.90;;;2.33;;
32611;SDS011;19030;49.478;8.986;2022-07-03T05:30:11;3.80;;;2.45;;
32611;SDS011;19030;49.478;8.986;2022-07-03T05:32:12;3.75;;;2.45;;
32611;SDS011;19030;49.478;8.986;2022-07-03T05:34:13;7.40;;;2.70;;
32611;SDS011;19030;49.478;8.986;2022-07-03T05:36:13;7.43;;;2.85;;
32611;SDS011;19030;49.478;8.986;2022-07-03T05:38:14;3.90;;;2.30;;
32611;SDS011;19030;49.478;8.986;2022-07-03T05:40:34;3.15;;;2.42;;
32611;SDS011;19030;49.478;8.986;2022-07-03T05:42:35;3.75;;;2.30;;
32611;SDS011;19030;49.478;8.986;2022-07-03T05:44:36;4.60;;;2.47;;
32611;SDS011;19030;49.478;8.986;2022-07-03T05:46:36;4.82;;;2.35;;
32611;SDS011;19030;49.478;8.986;2022-07-03T05:48:37;3.88;;;2.30;;
32611;SDS011;19030;49.478;8.986;2022-07-03T05:50:38;3.78;;;2.38;;
32611;SDS011;19030;49.478;8.986;2022-07-03T05:52:38;4.00;;;2.30;;
32611;SDS011;19030;49.478;8.986;2022-07-03T05:54:39;3.65;;;2.33;;
32611;SDS011;19030;49.478;8.986;2022-07-03T05:56:40;4.55;;;2.58;;
32611;SDS011;19030;49.478;8.986;2022-07-03T05:58:40;4.60;;;2.53;;
32611;SDS011;19030;49.478;8.986;2022-07-03T06:00:41;4.57;;;2.28;;
32611;SDS011;19030;49.478;8.986;2022-07-03T06:02:42;3.28;;;2.22;;
32611;SDS011;19030;49.478;8.986;2022-07-03T06:04:42;3.88;;;2.28;;
32611;SDS011;19030;49.478;8.986;2022-07-03T06:06:43;3.40;;;2.30;;
32611;SDS011;19030;49.478;8.986;2022-07-03T06:08:43;4.88;;;2.42;;
32611;SDS011;19030;49.478;8.986;2022-07-03T06:10:44;3.35;;;2.20;;
32611;SDS011;19030;49.478;8.986;2022-07-03T06:12:45;5.72;;;2.30;;
32611;SDS011;19030;49.478;8.986;2022-07-03T06:14:45;4.57;;;2.40;;
32611;SDS011;19030;49.478;8.986;2022-07-03T06:16:46;7.72;;;2.53;;
32611;SDS011;19030;49.478;8.986;2022-07-03T06:18:47;4.45;;;2.50;;
32611;SDS011;19030;49.478;8.986;2022-07-03T06:20:49;5.88;;;2.40;;
32611;SDS011;19030;49.478;8.986;2022-07-03T06:22:49;4.90;;;2.70;;
32611;SDS011;19030;49.478;8.986;2022-07-03T06:24:50;3.95;;;2.30;;
32611;SDS011;19030;49.478;8.986;2022-07-03T06:26:51;3.88;;;2.28;;
32611;SDS011;19030;49.478;8.986;2022-07-03T06:28:51;3.40;;;2.40;;
32611;SDS011;19030;49.478;8.986;2022-07-03T06:30:52;4.97;;;2.30;;
32611;SDS011;19030;49.478;8.986;2022-07-03T06:32:52;3.72;;;2.53;;
32611;SDS011;19030;49.478;8.986;2022-07-03T06:34:53;6.55;;;2.50;;
32611;SDS011;19030;49.478;8.986;2022-07-03T06:36:54;4.07;;;2.80;;
32611;SDS011;19030;49.478;8.986;2022-07-03T06:38:54;3.63;;;2.20;;
32611;SDS011;19030;49.478;8.986;2022-07-03T06:40:55;4.68;;;2.45;;
32611;SDS011;19030;49.478;8.986;2022-07-03T06:42:55;3.50;;;2.40;;
32611;SDS011;19030;49.478;8.986;2022-07-03T06:44:57;4.95;;;2.80;;
32611;SDS011;19030;49.478;8.986;2022-07-03T06:46:58;5.32;;;2.20;;
32611;SDS011;19030;49.478;8.986;2022-07-03T06:49:03;3.60;;;2.20;;
32611;SDS011;19030;49.478;8.986;2022-07-03T06:51:03;4.25;;;2.60;;
32611;SDS011;19030;49.478;8.986;2022-07-03T06:53:04;5.40;;;2.78;;
32611;SDS011;19030;49.478;8.986;2022-07-03T06:55:05;3.55;;;2.50;;
32611;SDS011;19030;49.478;8.986;2022-07-03T06:57:06;5.00;;;2.75;;
32611;SDS011;19030;49.478;8.986;2022-07-03T06:59:06;4.10;;;2.58;;
32611;SDS011;19030;49.478;8.986;2022-07-03T07:01:07;4.15;;;2.70;;
32611;SDS011;19030;49.478;8.986;2022-07-03T07:03:07;2.78;;;2.30;;
32611;SDS011;19030;49.478;8.986;2022-07-03T07:05:08;4.35;;;2.70;;
32611;SDS011;19030;49.478;8.986;2022-07-03T07:07:09;5.55;;;2.72;;
32611;SDS011;19030;49.478;8.986;2022-07-03T07:09:09;6.05;;;2.72;;
32611;SDS011;19030;49.478;8.986;2022-07-03T07:11:10;3.28;;;2.47;;
32611;SDS011;19030;49.478;8.986;2022-07-03T07:13:10;3.22;;;2.60;;
32611;SDS011;19030;49.478;8.986;2022-07-03T07:15:11;3.00;;;2.45;;
32611;SDS011;19030;49.478;8.986;2022-07-03T07:17:11;4.10;;;2.50;;
32611;SDS011;19030;49.478;8.986;2022-07-03T07:19:12;6.13;;;2.50;;
32611;SDS011;19030;49.478;8.986;2022-07-03T07:21:12;3.20;;;2.33;;
32611;SDS011;19030;49.478;8.986;2022-07-03T07:23:13;4.32;;;2.60;;
32611;SDS011;19030;49.478;8.986;2022-07-03T07:25:13;3.70;;;2.60;;
32611;SDS011;19030;49.478;8.986;2022-07-03T07:27:14;3.63;;;2.55;;
32611;SDS011;19030;49.478;8.986;2022-07-03T07:29:15;4.47;;;2.85;;
32611;SDS011;19030;49.478;8.986;2022-07-03T07:31:15;3.70;;;2.40;;
32611;SDS011;19030;49.478;8.986;2022-07-03T07:33:16;6.03;;;2.53;;
32611;SDS011;19030;49.478;8.986;2022-07-03T07:35:16;5.97;;;2.42;;
32611;SDS011;19030;49.478;8.986;2022-07-03T07:37:18;3.63;;;2.40;;
32611;SDS011;19030;49.478;8.986;2022-07-03T07:39:18;3.33;;;2.40;;
32611;SDS011;19030;49.478;8.986;2022-07-03T07:41:19;3.55;;;2.30;;
32611;SDS011;19030;49.478;8.986;2022-07-03T07:43:19;3.70;;;2.47;;
32611;SDS011;19030;49.478;8.986;2022-07-03T07:45:20;3.00;;;2.40;;
32611;SDS011;19030;49.478;8.986;2022-07-03T07:47:22;6.45;;;2.55;;
32611;SDS011;19030;49.478;8.986;2022-07-03T07:49:22;6.88;;;2.95;;
32611;SDS011;19030;49.478;8.986;2022-07-03T07:51:23;9.23;;;2.30;;
32611;SDS011;19030;49.478;8.986;2022-07-03T07:53:24;4.20;;;2.55;;
32611;SDS011;19030;49.478;8.986;2022-07-03T07:55:24;4.90;;;2.40;;
32611;SDS011;19030;49.478;8.986;2022-07-03T07:57:32;3.67;;;2.30;;
32611;SDS011;19030;49.478;8.986;2022-07-03T07:59:39;4.10;;;2.30;;
32611;SDS011;19030;49.478;8.986;2022-07-03T08:01:40;3.13;;;2.20;;
32611;SDS011;19030;49.478;8.986;2022-07-03T08:03:59;7.07;;;2.40;;
32611;SDS011;19030;49.478;8.986;2022-07-03T08:06:18;3.70;;;2.10;;
32611;SDS011;19030;49.478;8.986;2022-07-03T08:08:19;3.72;;;2.25;;
32611;SDS011;19030;49.478;8.986;2022-07-03T08:10:20;4.53;;;2.60;;
32611;SDS011;19030;49.478;8.986;2022-07-03T08:12:20;3.72;;;2.20;;
32611;SDS011;19030;49.478;8.986;2022-07-03T08:14:21;6.03;;;2.08;;
32611;SDS011;19030;49.478;8.986;2022-07-03T08:16:21;4.40;;;2.38;;
32611;SDS011;19030;49.478;8.986;2022-07-03T08:18:22;4.03;;;1.98;;
32611;SDS011;19030;49.478;8.986;2022-07-03T08:20:23;3.70;;;2.35;;
32611;SDS011;19030;49.478;8.986;2022-07-03T08:22:23;3.58;;;2.25;;
32611;SDS011;19030;49.478;8.986;2022-07-03T08:24:24;3.15;;;2.22;;
32611;SDS011;19030;49.478;8.986;2022-07-03T08:26:24;5.68;;;2.05;;
32611;SDS011;19030;49.478;8.986;2022-07-03T08:28:26;5.18;;;2.17;;
32611;SDS011;19030;49.478;8.986;2022-07-03T08:30:27;3.35;;;1.85;;
32611;SDS011;19030;49.478;8.986;2022-07-03T08:32:27;4.50;;;2.22;;
32611;SDS011;19030;49.478;8.986;2022-07-03T08:34:28;3.83;;;2.05;;
32611;SDS011;19030;49.478;8.986;2022-07-03T08:36:28;4.97;;;2.28;;
32611;SDS011;19030;49.478;8.986;2022-07-03T08:38:30;3.83;;;2.00;;
32611;SDS011;19030;49.478;8.986;2022-07-03T08:40:35;2.72;;;2.08;;
32611;SDS011;19030;49.478;8.986;2022-07-03T08:42:36;7.68;;;2.17;;
32611;SDS011;19030;49.478;8.986;2022-07-03T08:44:39;4.43;;;1.92;;
32611;SDS011;19030;49.478;8.986;2022-07-03T08:46:41;4.97;;;2.38;;
32611;SDS011;19030;49.478;8.986;2022-07-03T08:48:43;4.70;;;2.20;;
32611;SDS011;19030;49.478;8.986;2022-07-03T08:50:45;2.95;;;1.90;;
32611;SDS011;19030;49.478;8.986;2022-07-03T08:52:47;4.50;;;1.90;;
32611;SDS011;19030;49.478;8.986;2022-07-03T08:54:48;3.47;;;2.53;;
32611;SDS011;19030;49.478;8.986;2022-07-03T08:56:50;4.82;;;2.15;;
32611;SDS011;19030;49.478;8.986;2022-07-03T08:58:50;5.75;;;1.92;;
32611;SDS011;19030;49.478;8.986;2022-07-03T09:00:51;5.35;;;2.20;;
32611;SDS011;19030;49.478;8.986;2022-07-03T09:02:53;3.45;;;2.10;;
32611;SDS011;19030;49.478;8.986;2022-07-03T09:04:57;3.28;;;1.85;;
32611;SDS011;19030;49.478;8.986;2022-07-03T09:06:59;3.53;;;2.13;;
32611;SDS011;19030;49.478;8.986;2022-07-03T09:09:03;3.60;;;1.88;;
32611;SDS011;19030;49.478;8.986;2022-07-03T09:11:04;5.35;;;1.90;;
32611;SDS011;19030;49.478;8.986;2022-07-03T09:13:04;4.90;;;2.00;;
32611;SDS011;19030;49.478;8.986;2022-07-03T09:15:06;5.90;;;1.90;;
32611;SDS011;19030;49.478;8.986;2022-07-03T09:17:09;3.90;;;2.30;;
32611;SDS011;19030;49.478;8.986;2022-07-03T09:19:10;4.00;;;1.92;;
32611;SDS011;19030;49.478;8.986;2022-07-03T09:21:11;2.75;;;1.70;;
32611;SDS011;19030;49.478;8.986;2022-07-03T09:23:16;4.13;;;1.73;;
32611;SDS011;19030;49.478;8.986;2022-07-03T09:25:18;4.60;;;1.90;;
32611;SDS011;19030;49.478;8.986;2022-07-03T09:27:19;2.75;;;1.70;;
32611;SDS011;19030;49.478;8.986;2022-07-03T09:29:23;3.50;;;1.55;;
32611;SDS011;19030;49.478;8.986;2022-07-03T09:31:27;4.40;;;1.90;;
32611;SDS011;19030;49.478;8.986;2022-07-03T09:33:29;4.25;;;1.75;;
32611;SDS011;19030;49.478;8.986;2022-07-03T09:35:30;2.28;;;1.77;;
32611;SDS011;19030;49.478;8.986;2022-07-03T09:37:30;3.08;;;1.80;;
32611;SDS011;19030;49.478;8.986;2022-07-03T09:39:33;2.33;;;1.60;;
32611;SDS011;19030;49.478;8.986;2022-07-03T09:44:33;3.90;;;1.92;;
32611;SDS011;19030;49.478;8.986;2022-07-03T09:46:35;3.17;;;1.73;;
32611;SDS011;19030;49.478;8.986;2022-07-03T09:48:36;3.53;;;1.50;;
32611;SDS011;19030;49.478;8.986;2022-07-03T09:50:38;5.35;;;1.80;;
32611;SDS011;19030;49.478;8.986;2022-07-03T09:52:40;5.75;;;1.80;;
32611;SDS011;19030;49.478;8.986;2022-07-03T09:54:42;3.50;;;1.52;;
32611;SDS011;19030;49.478;8.986;2022-07-03T09:56:42;2.88;;;1.75;;
32611;SDS011;19030;49.478;8.986;2022-07-03T09:58:58;2.08;;;1.70;;
32611;SDS011;19030;49.478;8.986;2022-07-03T10:01:19;2.65;;;1.83;;
32611;SDS011;19030;49.478;8.986;2022-07-03T10:03:22;3.78;;;1.90;;
32611;SDS011;19030;49.478;8.986;2022-07-03T10:05:26;3.70;;;1.80;;
32611;SDS011;19030;49.478;8.986;2022-07-03T10:07:30;3.22;;;1.67;;
32611;SDS011;19030;49.478;8.986;2022-07-03T10:09:31;3.67;;;1.60;;
32611;SDS011;19030;49.478;8.986;2022-07-03T10:11:33;4.32;;;1.80;;
32611;SDS011;19030;49.478;8.986;2022-07-03T10:13:36;2.08;;;1.50;;
32611;SDS011;19030;49.478;8.986;2022-07-03T10:15:41;2.80;;;1.67;;
32611;SDS011;19030;49.478;8.986;2022-07-03T10:17:43;6.50;;;1.90;;
32611;SDS011;19030;49.478;8.986;2022-07-03T10:19:47;5.18;;;1.85;;
32611;SDS011;19030;49.478;8.986;2022-07-03T10:21:52;7.20;;;1.90;;
32611;SDS011;19030;49.478;8.986;2022-07-03T10:23:55;3.20;;;1.90;;
32611;SDS011;19030;49.478;8.986;2022-07-03T10:25:56;3.58;;;1.60;;
32611;SDS011;19030;49.478;8.986;2022-07-03T10:27:58;4.10;;;1.73;;
32611;SDS011;19030;49.478;8.986;2022-07-03T10:30:00;4.88;;;1.88;;
32611;SDS011;19030;49.478;8.986;2022-07-03T10:32:01;4.05;;;1.70;;
32611;SDS011;19030;49.478;8.986;2022-07-03T10:34:05;4.95;;;1.60;;
32611;SDS011;19030;49.478;8.986;2022-07-03T10:36:06;4.07;;;1.80;;
32611;SDS011;19030;49.478;8.986;2022-07-03T10:38:11;3.92;;;1.90;;
32611;SDS011;19030;49.478;8.986;2022-07-03T10:40:33;3.03;;;1.70;;
32611;SDS011;19030;49.478;8.986;2022-07-03T10:43:02;2.92;;;1.70;;
32611;SDS011;19030;49.478;8.986;2022-07-03T10:45:27;5.85;;;2.45;;
32611;SDS011;19030;49.478;8.986;2022-07-03T10:50:02;6.87;;;1.57;;
32611;SDS011;19030;49.478;8.986;2022-07-03T10:52:06;3.10;;;1.60;;
32611;SDS011;19030;49.478;8.986;2022-07-03T10:54:18;2.47;;;1.58;;
32611;SDS011;19030;49.478;8.986;2022-07-03T10:56:20;6.78;;;1.70;;
32611;SDS011;19030;49.478;8.986;2022-07-03T10:58:21;2.60;;;1.35;;
32611;SDS011;19030;49.478;8.986;2022-07-03T11:00:21;3.80;;;1.63;;
32611;SDS011;19030;49.478;8.986;2022-07-03T11:02:31;1.90;;;1.40;;
32611;SDS011;19030;49.478;8.986;2022-07-03T11:09:02;2.30;;;1.60;;
32611;SDS011;19030;49.478;8.986;2022-07-03T11:11:12;3.17;;;1.58;;
32611;SDS011;19030;49.478;8.986;2022-07-03T11:14:17;2.60;;;1.50;;
32611;SDS011;19030;49.478;8.986;2022-07-03T11:16:22;4.80;;;1.65;;
32611;SDS011;19030;49.478;8.986;2022-07-03T11:18:27;2.25;;;1.40;;
32611;SDS011;19030;49.478;8.986;2022-07-03T11:20:28;2.22;;;1.55;;
32611;SDS011;19030;49.478;8.986;2022-07-03T11:22:28;4.45;;;1.58;;
32611;SDS011;19030;49.478;8.986;2022-07-03T11:24:36;4.28;;;1.50;;
32611;SDS011;19030;49.478;8.986;2022-07-03T11:26:39;1.83;;;1.40;;
32611;SDS011;19030;49.478;8.986;2022-07-03T11:31:15;2.05;;;1.48;;
32611;SDS011;19030;49.478;8.986;2022-07-03T11:33:16;7.05;;;1.75;;
32611;SDS011;19030;49.478;8.986;2022-07-03T11:35:52;4.45;;;1.50;;
32611;SDS011;19030;49.478;8.986;2022-07-03T11:37:54;2.00;;;1.45;;
32611;SDS011;19030;49.478;8.986;2022-07-03T11:39:55;2.60;;;1.67;;
32611;SDS011;19030;49.478;8.986;2022-07-03T11:42:02;4.18;;;1.60;;
32611;SDS011;19030;49.478;8.986;2022-07-03T11:44:03;2.05;;;1.38;;
32611;SDS011;19030;49.478;8.986;2022-07-03T11:46:05;3.53;;;1.50;;
32611;SDS011;19030;49.478;8.986;2022-07-03T11:48:07;4.35;;;1.80;;
32611;SDS011;19030;49.478;8.986;2022-07-03T11:50:08;4.18;;;2.00;;
32611;SDS011;19030;49.478;8.986;2022-07-03T11:52:09;4.65;;;1.98;;
32611;SDS011;19030;49.478;8.986;2022-07-03T11:54:10;3.25;;;1.70;;
32611;SDS011;19030;49.478;8.986;2022-07-03T11:56:13;2.50;;;1.60;;
32611;SDS011;19030;49.478;8.986;2022-07-03T11:58:15;4.03;;;1.70;;
32611;SDS011;19030;49.478;8.986;2022-07-03T12:00:15;5.50;;;1.48;;
32611;SDS011;19030;49.478;8.986;2022-07-03T12:02:16;4.65;;;1.52;;
32611;SDS011;19030;49.478;8.986;2022-07-03T12:04:20;4.25;;;1.65;;
32611;SDS011;19030;49.478;8.986;2022-07-03T12:06:24;2.45;;;1.65;;
32611;SDS011;19030;49.478;8.986;2022-07-03T12:08:26;4.00;;;1.70;;
32611;SDS011;19030;49.478;8.986;2022-07-03T12:10:40;3.03;;;1.67;;
32611;SDS011;19030;49.478;8.986;2022-07-03T12:12:41;3.88;;;1.40;;
32611;SDS011;19030;49.478;8.986;2022-07-03T12:14:43;8.15;;;1.40;;
32611;SDS011;19030;49.478;8.986;2022-07-03T12:16:45;4.50;;;1.67;;
32611;SDS011;19030;49.478;8.986;2022-07-03T12:18:52;2.30;;;1.50;;
32611;SDS011;19030;49.478;8.986;2022-07-03T12:20:54;2.58;;;1.58;;
32611;SDS011;19030;49.478;8.986;2022-07-03T12:22:54;4.30;;;1.52;;
32611;SDS011;19030;49.478;8.986;2022-07-03T12:25:05;4.70;;;1.45;;
32611;SDS011;19030;49.478;8.986;2022-07-03T12:27:10;3.75;;;1.40;;
32611;SDS011;19030;49.478;8.986;2022-07-03T12:29:12;2.20;;;1.50;;
32611;SDS011;19030;49.478;8.986;2022-07-03T12:31:15;2.78;;;1.60;;
32611;SDS011;19030;49.478;8.986;2022-07-03T12:33:16;2.08;;;1.48;;
32611;SDS011;19030;49.478;8.986;2022-07-03T12:35:23;3.13;;;1.50;;
32611;SDS011;19030;49.478;8.986;2022-07-03T12:37:32;3.25;;;1.40;;
32611;SDS011;19030;49.478;8.986;2022-07-03T12:39:43;5.57;;;1.52;;
32611;SDS011;19030;49.478;8.986;2022-07-03T12:41:45;2.10;;;1.25;;
32611;SDS011;19030;49.478;8.986;2022-07-03T12:43:46;3.00;;;1.45;;
32611;SDS011;19030;49.478;8.986;2022-07-03T12:45:48;4.75;;;1.55;;
32611;SDS011;19030;49.478;8.986;2022-07-03T12:47:59;2.28;;;1.40;;
32611;SDS011;19030;49.478;8.986;2022-07-03T12:50:01;2.03;;;1.35;;
32611;SDS011;19030;49.478;8.986;2022-07-03T12:52:07;6.25;;;1.60;;
32611;SDS011;19030;49.478;8.986;2022-07-03T12:54:09;5.90;;;1.70;;
32611;SDS011;19030;49.478;8.986;2022-07-03T12:56:14;3.25;;;1.60;;
32611;SDS011;19030;49.478;8.986;2022-07-03T12:58:23;2.83;;;1.50;;
32611;SDS011;19030;49.478;8.986;2022-07-03T13:00:42;3.55;;;1.40;;
32611;SDS011;19030;49.478;8.986;2022-07-03T13:02:44;3.88;;;1.42;;
32611;SDS011;19030;49.478;8.986;2022-07-03T13:04:46;3.03;;;1.40;;
32611;SDS011;19030;49.478;8.986;2022-07-03T13:06:46;3.15;;;1.30;;
32611;SDS011;19030;49.478;8.986;2022-07-03T13:09:01;4.20;;;1.67;;
32611;SDS011;19030;49.478;8.986;2022-07-03T13:11:03;4.70;;;1.50;;
32611;SDS011;19030;49.478;8.986;2022-07-03T13:13:04;3.00;;;1.60;;